sensor_id;sensor_type;location;lat;lon;timestamp;temperature;humidity
30764;DHT22;17497;51.476;7.770;2023-05-10T00:01:06;12.60;99.90
30764;DHT22;17497;51.476;7.770;2023-05-10T00:03:34;12.50;99.90
30764;DHT22;17497;51.476;7.770;2023-05-10T00:06:01;12.50;99.90
30764;DHT22;17497;51.476;7.770;2023-05-10T00:08:28;12.50;99.90
30764;DHT22;17497;51.476;7.770;2023-05-10T00:10:54;12.50;99.90
30764;DHT22;17497;51.476;7.770;2023-05-10T00:13:22;12.50;99.90
30764;DHT22;17497;51.476;7.770;2023-05-10T00:15:48;12.60;99.90
30764;DHT22;17497;51.476;7.770;2023-05-10T00:18:15;12.50;99.90
30764;DHT22;17497;51.476;7.770;2023-05-10T00:20:42;12.50;99.90
30764;DHT22;17497;51.476;7.770;2023-05-10T00:23:09;12.40;99.90
30764;DHT22;17497;51.476;7.770;2023-05-10T00:25:35;12.40;99.90
30764;DHT22;17497;51.476;7.770;2023-05-10T00:28:02;12.40;99.90
30764;DHT22;17497;51.476;7.770;2023-05-10T00:30:29;12.40;99.90
30764;DHT22;17497;51.476;7.770;2023-05-10T00:32:56;12.40;99.90
30764;DHT22;17497;51.476;7.770;2023-05-10T00:35:23;12.40;99.90
30764;DHT22;17497;51.476;7.770;2023-05-10T00:37:49;12.40;99.90
30764;DHT22;17497;51.476;7.770;2023-05-10T00:40:16;12.40;99.90
30764;DHT22;17497;51.476;7.770;2023-05-10T00:42:43;12.40;99.90
30764;DHT22;17497;51.476;7.770;2023-05-10T00:45:10;12.40;99.90
30764;DHT22;17497;51.476;7.770;2023-05-10T00:47:37;12.40;99.90
30764;DHT22;17497;51.476;7.770;2023-05-10T00:50:05;12.40;99.90
30764;DHT22;17497;51.476;7.770;2023-05-10T00:52:32;12.40;99.90
30764;DHT22;17497;51.476;7.770;2023-05-10T00:55:00;12.40;99.90
30764;DHT22;17497;51.476;7.770;2023-05-10T00:57:27;12.40;99.90
30764;DHT22;17497;51.476;7.770;2023-05-10T00:59:53;12.30;99.90
30764;DHT22;17497;51.476;7.770;2023-05-10T01:02:20;12.40;99.90
30764;DHT22;17497;51.476;7.770;2023-05-10T01:04:47;12.40;99.90
30764;DHT22;17497;51.476;7.770;2023-05-10T01:07:14;12.40;99.90
30764;DHT22;17497;51.476;7.770;2023-05-10T01:09:41;12.40;99.90
30764;DHT22;17497;51.476;7.770;2023-05-10T01:12:08;12.30;99.90
30764;DHT22;17497;51.476;7.770;2023-05-10T01:14:35;12.40;99.90
30764;DHT22;17497;51.476;7.770;2023-05-10T01:17:03;12.40;99.90
30764;DHT22;17497;51.476;7.770;2023-05-10T01:19:31;12.40;99.90
30764;DHT22;17497;51.476;7.770;2023-05-10T01:33:01;12.30;99.90
30764;DHT22;17497;51.476;7.770;2023-05-10T01:38:20;12.30;99.90
30764;DHT22;17497;51.476;7.770;2023-05-10T01:43:53;12.40;99.90
30764;DHT22;17497;51.476;7.770;2023-05-10T01:46:38;12.30;99.90
30764;DHT22;17497;51.476;7.770;2023-05-10T01:49:25;12.30;99.90
30764;DHT22;17497;51.476;7.770;2023-05-10T01:51:54;12.30;99.90
30764;DHT22;17497;51.476;7.770;2023-05-10T01:54:25;12.30;99.90
30764;DHT22;17497;51.476;7.770;2023-05-10T01:57:01;12.30;99.90
30764;DHT22;17497;51.476;7.770;2023-05-10T01:59:34;12.30;99.90
30764;DHT22;17497;51.476;7.770;2023-05-10T02:02:08;12.30;99.90
30764;DHT22;17497;51.476;7.770;2023-05-10T02:04:39;12.40;99.90
30764;DHT22;17497;51.476;7.770;2023-05-10T02:07:07;12.30;99.90
30764;DHT22;17497;51.476;7.770;2023-05-10T02:09:36;12.30;99.90
30764;DHT22;17497;51.476;7.770;2023-05-10T02:12:05;12.30;99.90
30764;DHT22;17497;51.476;7.770;2023-05-10T02:14:35;12.40;99.90
30764;DHT22;17497;51.476;7.770;2023-05-10T02:17:04;12.40;99.90
30764;DHT22;17497;51.476;7.770;2023-05-10T02:19:32;12.40;99.90
30764;DHT22;17497;51.476;7.770;2023-05-10T02:22:00;12.40;99.90
30764;DHT22;17497;51.476;7.770;2023-05-10T02:24:28;12.40;99.90
30764;DHT22;17497;51.476;7.770;2023-05-10T02:26:56;12.40;99.90
30764;DHT22;17497;51.476;7.770;2023-05-10T02:29:25;12.30;99.90
30764;DHT22;17497;51.476;7.770;2023-05-10T02:31:54;12.30;99.90
30764;DHT22;17497;51.476;7.770;2023-05-10T02:34:23;12.20;99.90
30764;DHT22;17497;51.476;7.770;2023-05-10T02:36:53;12.30;99.90
30764;DHT22;17497;51.476;7.770;2023-05-10T02:39:21;12.20;99.90
30764;DHT22;17497;51.476;7.770;2023-05-10T02:41:52;12.20;99.90
30764;DHT22;17497;51.476;7.770;2023-05-10T02:44:20;12.20;99.90
30764;DHT22;17497;51.476;7.770;2023-05-10T02:46:48;12.30;99.90
30764;DHT22;17497;51.476;7.770;2023-05-10T02:49:15;12.30;99.90
30764;DHT22;17497;51.476;7.770;2023-05-10T02:51:47;12.30;99.90
30764;DHT22;17497;51.476;7.770;2023-05-10T02:54:21;12.40;99.90
30764;DHT22;17497;51.476;7.770;2023-05-10T02:57:00;12.30;99.90
30764;DHT22;17497;51.476;7.770;2023-05-10T02:59:29;12.20;99.90
30764;DHT22;17497;51.476;7.770;2023-05-10T03:01:56;12.20;99.90
30764;DHT22;17497;51.476;7.770;2023-05-10T03:04:23;12.20;99.90
30764;DHT22;17497;51.476;7.770;2023-05-10T03:06:50;12.20;99.90
30764;DHT22;17497;51.476;7.770;2023-05-10T03:09:17;12.10;99.90
30764;DHT22;17497;51.476;7.770;2023-05-10T03:11:56;12.00;99.90
30764;DHT22;17497;51.476;7.770;2023-05-10T03:14:45;11.90;99.90
30764;DHT22;17497;51.476;7.770;2023-05-10T03:17:29;11.80;99.90
30764;DHT22;17497;51.476;7.770;2023-05-10T03:20:01;11.80;99.90
30764;DHT22;17497;51.476;7.770;2023-05-10T03:22:37;11.70;99.90
30764;DHT22;17497;51.476;7.770;2023-05-10T03:25:06;11.80;99.90
30764;DHT22;17497;51.476;7.770;2023-05-10T03:27:36;11.70;99.90
30764;DHT22;17497;51.476;7.770;2023-05-10T03:30:07;11.70;99.90
30764;DHT22;17497;51.476;7.770;2023-05-10T03:32:34;11.60;99.90
30764;DHT22;17497;51.476;7.770;2023-05-10T05:04:06;12.10;99.90
30764;DHT22;17497;51.476;7.770;2023-05-10T05:06:33;12.20;99.90
30764;DHT22;17497;51.476;7.770;2023-05-10T05:09:00;12.10;99.90
30764;DHT22;17497;51.476;7.770;2023-05-10T05:11:26;12.10;99.90
30764;DHT22;17497;51.476;7.770;2023-05-10T05:13:53;12.10;99.90
30764;DHT22;17497;51.476;7.770;2023-05-10T05:16:20;12.00;99.90
30764;DHT22;17497;51.476;7.770;2023-05-10T05:18:48;12.10;99.90
30764;DHT22;17497;51.476;7.770;2023-05-10T05:21:15;12.20;99.90
30764;DHT22;17497;51.476;7.770;2023-05-10T05:23:43;12.20;99.90
30764;DHT22;17497;51.476;7.770;2023-05-10T05:26:10;12.30;99.90
30764;DHT22;17497;51.476;7.770;2023-05-10T05:28:37;12.30;99.90
30764;DHT22;17497;51.476;7.770;2023-05-10T05:31:04;12.40;99.90
30764;DHT22;17497;51.476;7.770;2023-05-10T05:33:32;12.40;99.90
30764;DHT22;17497;51.476;7.770;2023-05-10T05:36:06;12.30;99.90
30764;DHT22;17497;51.476;7.770;2023-05-10T05:38:33;12.30;99.90
30764;DHT22;17497;51.476;7.770;2023-05-10T05:41:00;12.20;99.90
30764;DHT22;17497;51.476;7.770;2023-05-10T05:43:26;12.30;99.90
30764;DHT22;17497;51.476;7.770;2023-05-10T05:45:55;12.30;99.90
30764;DHT22;17497;51.476;7.770;2023-05-10T05:48:24;12.20;99.90
30764;DHT22;17497;51.476;7.770;2023-05-10T05:50:54;12.10;99.90
30764;DHT22;17497;51.476;7.770;2023-05-10T05:53:22;12.10;99.90
30764;DHT22;17497;51.476;7.770;2023-05-10T05:55:53;12.10;99.90
30764;DHT22;17497;51.476;7.770;2023-05-10T05:58:23;12.10;99.90
30764;DHT22;17497;51.476;7.770;2023-05-10T06:00:51;12.10;99.90
30764;DHT22;17497;51.476;7.770;2023-05-10T06:03:21;12.10;99.90
30764;DHT22;17497;51.476;7.770;2023-05-10T06:05:48;12.10;99.90
30764;DHT22;17497;51.476;7.770;2023-05-10T06:08:14;12.10;99.90
30764;DHT22;17497;51.476;7.770;2023-05-10T06:10:41;12.20;99.90
30764;DHT22;17497;51.476;7.770;2023-05-10T06:13:08;12.30;99.90
30764;DHT22;17497;51.476;7.770;2023-05-10T06:15:35;12.40;99.90
30764;DHT22;17497;51.476;7.770;2023-05-10T06:18:02;12.40;99.90
30764;DHT22;17497;51.476;7.770;2023-05-10T06:20:29;12.50;99.90
30764;DHT22;17497;51.476;7.770;2023-05-10T06:22:58;12.60;99.90
30764;DHT22;17497;51.476;7.770;2023-05-10T06:25:25;12.70;99.90
30764;DHT22;17497;51.476;7.770;2023-05-10T06:27:51;12.60;99.90
30764;DHT22;17497;51.476;7.770;2023-05-10T06:30:24;12.60;99.90
30764;DHT22;17497;51.476;7.770;2023-05-10T06:32:54;12.60;99.90
30764;DHT22;17497;51.476;7.770;2023-05-10T06:35:21;12.70;99.90
30764;DHT22;17497;51.476;7.770;2023-05-10T06:37:48;12.70;99.90
30764;DHT22;17497;51.476;7.770;2023-05-10T06:40:16;12.70;99.90
30764;DHT22;17497;51.476;7.770;2023-05-10T06:42:42;12.70;99.90
30764;DHT22;17497;51.476;7.770;2023-05-10T06:45:11;12.70;99.90
30764;DHT22;17497;51.476;7.770;2023-05-10T06:47:39;12.70;99.90
30764;DHT22;17497;51.476;7.770;2023-05-10T06:50:07;12.80;99.90
30764;DHT22;17497;51.476;7.770;2023-05-10T06:52:34;12.90;99.90
30764;DHT22;17497;51.476;7.770;2023-05-10T06:55:01;13.00;99.90
30764;DHT22;17497;51.476;7.770;2023-05-10T06:57:28;13.10;99.90
30764;DHT22;17497;51.476;7.770;2023-05-10T07:00:01;13.40;99.90
30764;DHT22;17497;51.476;7.770;2023-05-10T07:02:28;13.50;99.90
30764;DHT22;17497;51.476;7.770;2023-05-10T07:04:55;13.60;99.90
30764;DHT22;17497;51.476;7.770;2023-05-10T07:07:21;13.50;99.90
30764;DHT22;17497;51.476;7.770;2023-05-10T07:09:48;13.50;99.90
30764;DHT22;17497;51.476;7.770;2023-05-10T07:12:16;13.30;99.90
30764;DHT22;17497;51.476;7.770;2023-05-10T07:14:43;13.30;99.90
30764;DHT22;17497;51.476;7.770;2023-05-10T07:17:10;13.30;99.90
30764;DHT22;17497;51.476;7.770;2023-05-10T07:19:36;13.30;99.90
30764;DHT22;17497;51.476;7.770;2023-05-10T07:22:03;13.30;99.90
30764;DHT22;17497;51.476;7.770;2023-05-10T07:24:31;13.40;99.90
30764;DHT22;17497;51.476;7.770;2023-05-10T07:26:58;13.30;99.90
30764;DHT22;17497;51.476;7.770;2023-05-10T07:29:25;13.40;99.90
30764;DHT22;17497;51.476;7.770;2023-05-10T07:31:52;13.50;99.90
30764;DHT22;17497;51.476;7.770;2023-05-10T07:34:21;13.60;99.90
30764;DHT22;17497;51.476;7.770;2023-05-10T07:36:48;13.70;99.90
30764;DHT22;17497;51.476;7.770;2023-05-10T07:39:15;13.80;99.90
30764;DHT22;17497;51.476;7.770;2023-05-10T07:41:53;13.80;99.90
30764;DHT22;17497;51.476;7.770;2023-05-10T07:44:23;13.90;99.90
30764;DHT22;17497;51.476;7.770;2023-05-10T07:46:50;13.90;99.90
30764;DHT22;17497;51.476;7.770;2023-05-10T07:49:17;13.90;99.90
30764;DHT22;17497;51.476;7.770;2023-05-10T07:51:44;13.90;99.90
30764;DHT22;17497;51.476;7.770;2023-05-10T07:54:10;13.80;99.90
30764;DHT22;17497;51.476;7.770;2023-05-10T07:56:37;13.80;99.90
30764;DHT22;17497;51.476;7.770;2023-05-10T07:59:04;13.80;99.90
30764;DHT22;17497;51.476;7.770;2023-05-10T08:01:34;13.90;99.90
30764;DHT22;17497;51.476;7.770;2023-05-10T08:04:01;14.00;99.90
30764;DHT22;17497;51.476;7.770;2023-05-10T08:06:28;13.90;99.90
30764;DHT22;17497;51.476;7.770;2023-05-10T08:08:57;13.90;99.90
30764;DHT22;17497;51.476;7.770;2023-05-10T08:11:23;13.90;99.90
30764;DHT22;17497;51.476;7.770;2023-05-10T08:13:51;13.90;99.90
30764;DHT22;17497;51.476;7.770;2023-05-10T08:16:18;14.00;99.90
30764;DHT22;17497;51.476;7.770;2023-05-10T08:18:45;14.10;99.90
30764;DHT22;17497;51.476;7.770;2023-05-10T08:21:14;14.10;99.90
30764;DHT22;17497;51.476;7.770;2023-05-10T08:23:42;14.10;99.90
30764;DHT22;17497;51.476;7.770;2023-05-10T08:26:10;14.20;99.90
30764;DHT22;17497;51.476;7.770;2023-05-10T08:28:37;14.20;99.90
30764;DHT22;17497;51.476;7.770;2023-05-10T08:31:05;14.30;99.90
30764;DHT22;17497;51.476;7.770;2023-05-10T08:33:32;14.40;99.90
30764;DHT22;17497;51.476;7.770;2023-05-10T08:35:59;14.60;99.90
30764;DHT22;17497;51.476;7.770;2023-05-10T08:38:25;14.70;99.90
30764;DHT22;17497;51.476;7.770;2023-05-10T08:40:54;14.90;99.90
30764;DHT22;17497;51.476;7.770;2023-05-10T08:43:27;15.00;99.90
30764;DHT22;17497;51.476;7.770;2023-05-10T08:45:55;15.10;99.90
30764;DHT22;17497;51.476;7.770;2023-05-10T08:48:23;15.10;99.90
30764;DHT22;17497;51.476;7.770;2023-05-10T08:50:53;14.90;99.90
30764;DHT22;17497;51.476;7.770;2023-05-10T08:53:22;14.80;99.90
30764;DHT22;17497;51.476;7.770;2023-05-10T08:55:51;14.60;99.90
30764;DHT22;17497;51.476;7.770;2023-05-10T08:58:19;14.50;99.90
30764;DHT22;17497;51.476;7.770;2023-05-10T09:00:48;14.40;99.90
30764;DHT22;17497;51.476;7.770;2023-05-10T09:03:15;14.50;99.90
30764;DHT22;17497;51.476;7.770;2023-05-10T09:05:42;14.50;99.90
30764;DHT22;17497;51.476;7.770;2023-05-10T09:08:11;14.70;99.90
30764;DHT22;17497;51.476;7.770;2023-05-10T09:10:39;14.90;99.90
30764;DHT22;17497;51.476;7.770;2023-05-10T09:13:07;15.10;99.90
30764;DHT22;17497;51.476;7.770;2023-05-10T09:15:36;15.40;99.90
30764;DHT22;17497;51.476;7.770;2023-05-10T09:18:02;15.70;99.90
30764;DHT22;17497;51.476;7.770;2023-05-10T09:20:29;15.80;99.90
30764;DHT22;17497;51.476;7.770;2023-05-10T09:22:57;15.70;99.90
30764;DHT22;17497;51.476;7.770;2023-05-10T09:25:24;15.40;99.90
30764;DHT22;17497;51.476;7.770;2023-05-10T09:27:51;15.20;99.90
30764;DHT22;17497;51.476;7.770;2023-05-10T09:30:28;15.00;99.90
30764;DHT22;17497;51.476;7.770;2023-05-10T09:32:56;15.10;99.90
30764;DHT22;17497;51.476;7.770;2023-05-10T09:35:25;15.30;99.90
30764;DHT22;17497;51.476;7.770;2023-05-10T09:37:59;15.60;99.90
30764;DHT22;17497;51.476;7.770;2023-05-10T09:40:28;15.90;99.90
30764;DHT22;17497;51.476;7.770;2023-05-10T09:42:56;16.00;99.90
30764;DHT22;17497;51.476;7.770;2023-05-10T09:45:24;16.10;99.90
30764;DHT22;17497;51.476;7.770;2023-05-10T09:47:51;16.10;99.90
30764;DHT22;17497;51.476;7.770;2023-05-10T09:50:19;16.20;99.90
30764;DHT22;17497;51.476;7.770;2023-05-10T09:52:50;16.10;99.90
30764;DHT22;17497;51.476;7.770;2023-05-10T09:55:20;16.00;99.90
30764;DHT22;17497;51.476;7.770;2023-05-10T09:57:47;15.90;99.90
30764;DHT22;17497;51.476;7.770;2023-05-10T10:00:18;16.00;99.90
30764;DHT22;17497;51.476;7.770;2023-05-10T10:02:55;16.30;99.90
30764;DHT22;17497;51.476;7.770;2023-05-10T10:05:28;16.60;99.90
30764;DHT22;17497;51.476;7.770;2023-05-10T10:07:57;17.00;99.90
30764;DHT22;17497;51.476;7.770;2023-05-10T10:10:27;17.20;99.90
30764;DHT22;17497;51.476;7.770;2023-05-10T10:12:55;17.40;99.90
30764;DHT22;17497;51.476;7.770;2023-05-10T10:15:22;17.40;99.90
30764;DHT22;17497;51.476;7.770;2023-05-10T10:17:50;17.40;99.90
30764;DHT22;17497;51.476;7.770;2023-05-10T10:20:18;16.90;99.90
30764;DHT22;17497;51.476;7.770;2023-05-10T10:22:46;17.00;99.90
30764;DHT22;17497;51.476;7.770;2023-05-10T10:25:16;16.60;99.90
30764;DHT22;17497;51.476;7.770;2023-05-10T10:35:55;16.70;99.90
30764;DHT22;17497;51.476;7.770;2023-05-10T10:38:24;17.20;99.90
30764;DHT22;17497;51.476;7.770;2023-05-10T10:41:10;17.60;99.90
30764;DHT22;17497;51.476;7.770;2023-05-10T10:43:37;18.20;99.90
30764;DHT22;17497;51.476;7.770;2023-05-10T10:46:12;18.80;99.90
30764;DHT22;17497;51.476;7.770;2023-05-10T10:48:47;18.90;99.90
30764;DHT22;17497;51.476;7.770;2023-05-10T10:51:15;19.00;99.90
30764;DHT22;17497;51.476;7.770;2023-05-10T10:53:43;19.40;99.90
30764;DHT22;17497;51.476;7.770;2023-05-10T10:56:13;19.60;99.90
30764;DHT22;17497;51.476;7.770;2023-05-10T10:58:49;20.10;99.90
30764;DHT22;17497;51.476;7.770;2023-05-10T11:01:18;19.90;99.90
30764;DHT22;17497;51.476;7.770;2023-05-10T11:06:31;19.10;99.90
30764;DHT22;17497;51.476;7.770;2023-05-10T11:09:09;18.90;99.90
30764;DHT22;17497;51.476;7.770;2023-05-10T11:11:48;18.40;99.90
30764;DHT22;17497;51.476;7.770;2023-05-10T11:14:20;18.30;99.90
30764;DHT22;17497;51.476;7.770;2023-05-10T11:16:47;18.30;99.90
30764;DHT22;17497;51.476;7.770;2023-05-10T11:19:15;19.00;99.90
30764;DHT22;17497;51.476;7.770;2023-05-10T11:24:15;19.80;99.90
30764;DHT22;17497;51.476;7.770;2023-05-10T11:26:42;19.10;99.90
30764;DHT22;17497;51.476;7.770;2023-05-10T11:29:10;18.40;99.90
30764;DHT22;17497;51.476;7.770;2023-05-10T11:31:42;17.80;99.90
30764;DHT22;17497;51.476;7.770;2023-05-10T11:34:10;17.30;99.90
30764;DHT22;17497;51.476;7.770;2023-05-10T11:36:37;17.00;99.90
30764;DHT22;17497;51.476;7.770;2023-05-10T11:39:05;17.00;99.90
30764;DHT22;17497;51.476;7.770;2023-05-10T11:41:32;17.10;99.90
30764;DHT22;17497;51.476;7.770;2023-05-10T11:43:59;17.10;99.90
30764;DHT22;17497;51.476;7.770;2023-05-10T11:46:27;17.30;99.90
30764;DHT22;17497;51.476;7.770;2023-05-10T11:49:01;17.70;99.90
30764;DHT22;17497;51.476;7.770;2023-05-10T11:51:33;17.10;99.90
30764;DHT22;17497;51.476;7.770;2023-05-10T11:54:09;16.80;99.90
30764;DHT22;17497;51.476;7.770;2023-05-10T11:56:40;16.70;99.90
30764;DHT22;17497;51.476;7.770;2023-05-10T11:59:07;16.50;99.90
30764;DHT22;17497;51.476;7.770;2023-05-10T12:01:34;16.50;99.90
30764;DHT22;17497;51.476;7.770;2023-05-10T12:04:02;16.00;99.90
30764;DHT22;17497;51.476;7.770;2023-05-10T12:06:31;15.60;99.90
30764;DHT22;17497;51.476;7.770;2023-05-10T12:08:58;15.30;99.90
30764;DHT22;17497;51.476;7.770;2023-05-10T12:11:26;15.00;99.90
30764;DHT22;17497;51.476;7.770;2023-05-10T12:13:54;15.10;99.90
30764;DHT22;17497;51.476;7.770;2023-05-10T12:16:25;15.00;99.90
30764;DHT22;17497;51.476;7.770;2023-05-10T12:18:53;14.90;99.90
30764;DHT22;17497;51.476;7.770;2023-05-10T12:21:21;14.90;99.90
30764;DHT22;17497;51.476;7.770;2023-05-10T12:23:53;15.00;99.90
30764;DHT22;17497;51.476;7.770;2023-05-10T12:26:23;15.00;99.90
30764;DHT22;17497;51.476;7.770;2023-05-10T12:28:51;15.00;99.90
30764;DHT22;17497;51.476;7.770;2023-05-10T12:31:18;15.00;99.90
30764;DHT22;17497;51.476;7.770;2023-05-10T12:33:45;15.10;99.90
30764;DHT22;17497;51.476;7.770;2023-05-10T12:36:14;15.20;99.90
30764;DHT22;17497;51.476;7.770;2023-05-10T12:38:42;15.20;99.90
30764;DHT22;17497;51.476;7.770;2023-05-10T12:41:15;15.20;99.90
30764;DHT22;17497;51.476;7.770;2023-05-10T12:43:42;15.30;99.90
30764;DHT22;17497;51.476;7.770;2023-05-10T12:46:13;15.70;99.90
30764;DHT22;17497;51.476;7.770;2023-05-10T12:48:41;15.90;99.90
30764;DHT22;17497;51.476;7.770;2023-05-10T12:51:09;16.20;99.90
30764;DHT22;17497;51.476;7.770;2023-05-10T12:53:38;16.60;99.90
30764;DHT22;17497;51.476;7.770;2023-05-10T12:56:09;17.10;99.90
30764;DHT22;17497;51.476;7.770;2023-05-10T12:58:36;17.30;99.90
30764;DHT22;17497;51.476;7.770;2023-05-10T13:01:04;17.90;99.90
30764;DHT22;17497;51.476;7.770;2023-05-10T13:03:31;18.50;99.90
30764;DHT22;17497;51.476;7.770;2023-05-10T13:05:58;18.30;99.90
30764;DHT22;17497;51.476;7.770;2023-05-10T13:08:25;18.50;99.90
30764;DHT22;17497;51.476;7.770;2023-05-10T13:10:52;18.70;99.90
30764;DHT22;17497;51.476;7.770;2023-05-10T13:13:19;19.10;99.90
30764;DHT22;17497;51.476;7.770;2023-05-10T13:15:46;19.10;99.90
30764;DHT22;17497;51.476;7.770;2023-05-10T13:18:16;19.20;99.90
30764;DHT22;17497;51.476;7.770;2023-05-10T13:20:43;20.00;99.90
30764;DHT22;17497;51.476;7.770;2023-05-10T13:23:10;20.10;99.90
30764;DHT22;17497;51.476;7.770;2023-05-10T13:25:37;20.20;99.90
30764;DHT22;17497;51.476;7.770;2023-05-10T13:28:04;19.90;99.90
30764;DHT22;17497;51.476;7.770;2023-05-10T13:30:31;19.60;99.90
30764;DHT22;17497;51.476;7.770;2023-05-10T13:32:58;19.80;99.90
30764;DHT22;17497;51.476;7.770;2023-05-10T13:35:27;19.20;99.90
30764;DHT22;17497;51.476;7.770;2023-05-10T13:37:54;19.20;99.90
30764;DHT22;17497;51.476;7.770;2023-05-10T13:40:23;19.10;99.90
30764;DHT22;17497;51.476;7.770;2023-05-10T13:42:50;19.80;99.90
30764;DHT22;17497;51.476;7.770;2023-05-10T13:45:16;19.90;99.90
30764;DHT22;17497;51.476;7.770;2023-05-10T13:47:43;20.00;99.90
30764;DHT22;17497;51.476;7.770;2023-05-10T13:50:13;20.00;99.90
30764;DHT22;17497;51.476;7.770;2023-05-10T13:52:42;19.70;99.90
30764;DHT22;17497;51.476;7.770;2023-05-10T13:55:08;19.90;99.90
30764;DHT22;17497;51.476;7.770;2023-05-10T13:57:35;19.70;99.90
30764;DHT22;17497;51.476;7.770;2023-05-10T14:00:05;19.90;99.90
30764;DHT22;17497;51.476;7.770;2023-05-10T14:02:38;20.00;99.90
30764;DHT22;17497;51.476;7.770;2023-05-10T14:05:05;19.70;99.90
30764;DHT22;17497;51.476;7.770;2023-05-10T14:07:32;20.10;99.90
30764;DHT22;17497;51.476;7.770;2023-05-10T14:09:58;20.40;99.90
30764;DHT22;17497;51.476;7.770;2023-05-10T14:12:25;20.50;99.90
30764;DHT22;17497;51.476;7.770;2023-05-10T14:14:52;19.80;99.90
30764;DHT22;17497;51.476;7.770;2023-05-10T14:17:19;19.20;99.90
30764;DHT22;17497;51.476;7.770;2023-05-10T14:19:45;18.80;99.90
30764;DHT22;17497;51.476;7.770;2023-05-10T14:22:12;19.40;99.90
30764;DHT22;17497;51.476;7.770;2023-05-10T14:24:39;19.70;99.90
30764;DHT22;17497;51.476;7.770;2023-05-10T14:27:05;20.10;99.90
30764;DHT22;17497;51.476;7.770;2023-05-10T14:29:32;20.50;99.90
30764;DHT22;17497;51.476;7.770;2023-05-10T14:31:59;20.90;99.90
30764;DHT22;17497;51.476;7.770;2023-05-10T14:34:26;21.30;99.90
30764;DHT22;17497;51.476;7.770;2023-05-10T14:36:52;20.90;99.90
30764;DHT22;17497;51.476;7.770;2023-05-10T14:39:19;20.10;99.90
30764;DHT22;17497;51.476;7.770;2023-05-10T14:41:46;19.80;99.90
30764;DHT22;17497;51.476;7.770;2023-05-10T14:44:13;19.90;99.90
30764;DHT22;17497;51.476;7.770;2023-05-10T14:46:41;19.40;99.90
30764;DHT22;17497;51.476;7.770;2023-05-10T14:49:08;19.20;99.90
30764;DHT22;17497;51.476;7.770;2023-05-10T14:51:35;19.10;99.90
30764;DHT22;17497;51.476;7.770;2023-05-10T14:54:03;18.70;99.90
30764;DHT22;17497;51.476;7.770;2023-05-10T14:56:30;18.40;99.90
30764;DHT22;17497;51.476;7.770;2023-05-10T14:58:56;18.50;99.90
30764;DHT22;17497;51.476;7.770;2023-05-10T15:01:24;18.20;99.90
30764;DHT22;17497;51.476;7.770;2023-05-10T15:03:51;18.20;99.90
30764;DHT22;17497;51.476;7.770;2023-05-10T15:06:23;18.40;99.90
30764;DHT22;17497;51.476;7.770;2023-05-10T15:08:51;18.90;99.90
30764;DHT22;17497;51.476;7.770;2023-05-10T15:11:18;19.30;99.90
30764;DHT22;17497;51.476;7.770;2023-05-10T15:13:45;19.60;99.90
30764;DHT22;17497;51.476;7.770;2023-05-10T15:16:11;19.60;99.90
30764;DHT22;17497;51.476;7.770;2023-05-10T15:18:38;19.40;99.90
30764;DHT22;17497;51.476;7.770;2023-05-10T15:21:05;19.70;99.90
30764;DHT22;17497;51.476;7.770;2023-05-10T15:23:31;19.90;99.90
30764;DHT22;17497;51.476;7.770;2023-05-10T15:25:58;19.50;99.90
30764;DHT22;17497;51.476;7.770;2023-05-10T15:28:25;19.30;99.90
30764;DHT22;17497;51.476;7.770;2023-05-10T15:30:51;19.50;99.90
30764;DHT22;17497;51.476;7.770;2023-05-10T15:33:18;19.90;99.90
30764;DHT22;17497;51.476;7.770;2023-05-10T15:41:08;19.90;99.90
30764;DHT22;17497;51.476;7.770;2023-05-10T15:43:35;19.80;99.90
30764;DHT22;17497;51.476;7.770;2023-05-10T15:46:02;20.00;99.90
30764;DHT22;17497;51.476;7.770;2023-05-10T15:48:31;20.30;99.90
30764;DHT22;17497;51.476;7.770;2023-05-10T15:51:06;20.60;99.90
30764;DHT22;17497;51.476;7.770;2023-05-10T15:53:42;21.20;99.90
30764;DHT22;17497;51.476;7.770;2023-05-10T15:56:26;21.60;99.90
30764;DHT22;17497;51.476;7.770;2023-05-10T15:58:52;22.10;99.90
30764;DHT22;17497;51.476;7.770;2023-05-10T16:01:25;22.00;99.90
30764;DHT22;17497;51.476;7.770;2023-05-10T16:03:53;22.00;99.90
30764;DHT22;17497;51.476;7.770;2023-05-10T16:06:27;22.20;99.90
30764;DHT22;17497;51.476;7.770;2023-05-10T16:08:58;22.30;99.90
30764;DHT22;17497;51.476;7.770;2023-05-10T16:11:25;22.10;99.90
30764;DHT22;17497;51.476;7.770;2023-05-10T16:13:55;21.80;99.90
30764;DHT22;17497;51.476;7.770;2023-05-10T16:16:22;21.20;99.90
30764;DHT22;17497;51.476;7.770;2023-05-10T16:18:50;20.70;99.90
30764;DHT22;17497;51.476;7.770;2023-05-10T16:21:17;20.50;99.90
30764;DHT22;17497;51.476;7.770;2023-05-10T16:23:45;20.30;99.90
30764;DHT22;17497;51.476;7.770;2023-05-10T16:26:12;19.90;99.90
30764;DHT22;17497;51.476;7.770;2023-05-10T16:28:39;19.40;99.90
30764;DHT22;17497;51.476;7.770;2023-05-10T16:31:06;19.20;99.90
30764;DHT22;17497;51.476;7.770;2023-05-10T16:33:33;19.10;99.90
30764;DHT22;17497;51.476;7.770;2023-05-10T16:36:00;18.80;99.90
30764;DHT22;17497;51.476;7.770;2023-05-10T16:38:26;18.30;99.90
30764;DHT22;17497;51.476;7.770;2023-05-10T16:40:53;18.00;99.90
30764;DHT22;17497;51.476;7.770;2023-05-10T16:43:20;18.00;99.90
30764;DHT22;17497;51.476;7.770;2023-05-10T16:45:59;17.90;99.90
30764;DHT22;17497;51.476;7.770;2023-05-10T16:48:26;18.00;99.90
30764;DHT22;17497;51.476;7.770;2023-05-10T16:50:53;17.90;99.90
30764;DHT22;17497;51.476;7.770;2023-05-10T16:53:20;17.90;99.90
30764;DHT22;17497;51.476;7.770;2023-05-10T16:55:47;17.70;99.90
30764;DHT22;17497;51.476;7.770;2023-05-10T16:58:13;17.80;99.90
30764;DHT22;17497;51.476;7.770;2023-05-10T17:00:40;17.80;99.90
30764;DHT22;17497;51.476;7.770;2023-05-10T17:03:07;17.80;99.90
30764;DHT22;17497;51.476;7.770;2023-05-10T17:05:34;18.00;99.90
30764;DHT22;17497;51.476;7.770;2023-05-10T17:08:01;18.10;99.90
30764;DHT22;17497;51.476;7.770;2023-05-10T17:10:27;18.10;99.90
30764;DHT22;17497;51.476;7.770;2023-05-10T17:12:54;18.00;99.90
30764;DHT22;17497;51.476;7.770;2023-05-10T17:15:21;18.00;99.90
30764;DHT22;17497;51.476;7.770;2023-05-10T17:17:49;18.00;99.90
30764;DHT22;17497;51.476;7.770;2023-05-10T17:20:16;18.00;99.90
30764;DHT22;17497;51.476;7.770;2023-05-10T17:22:43;17.80;99.90
30764;DHT22;17497;51.476;7.770;2023-05-10T17:25:09;17.80;99.90
30764;DHT22;17497;51.476;7.770;2023-05-10T17:27:36;17.80;99.90
30764;DHT22;17497;51.476;7.770;2023-05-10T17:30:04;17.70;99.90
30764;DHT22;17497;51.476;7.770;2023-05-10T17:32:31;17.60;99.90
30764;DHT22;17497;51.476;7.770;2023-05-10T17:34:57;17.60;99.90
30764;DHT22;17497;51.476;7.770;2023-05-10T17:37:24;17.50;99.90
30764;DHT22;17497;51.476;7.770;2023-05-10T17:39:51;17.40;99.90
30764;DHT22;17497;51.476;7.770;2023-05-10T17:42:18;17.20;99.90